createdAt,value
2022-10-17T00:01:14.673Z,6.03
2022-10-17T00:03:41.256Z,5.75
2022-10-17T00:06:11.219Z,4.28
2022-10-17T00:08:40.806Z,3.20
2022-10-17T00:11:20.403Z,3.88
2022-10-17T00:13:48.770Z,4.65
2022-10-17T00:16:22.864Z,3.47
2022-10-17T00:18:49.620Z,2.25
2022-10-17T00:21:18.171Z,2.83
2022-10-17T00:23:45.285Z,6.10
2022-10-17T00:26:12.099Z,2.70
2022-10-17T00:28:38.805Z,5.10
2022-10-17T00:31:07.222Z,4.75
2022-10-17T00:33:35.543Z,4.85
2022-10-17T00:36:14.147Z,4.82
2022-10-17T00:38:47.265Z,7.07
2022-10-17T00:41:16.780Z,5.95
2022-10-17T00:43:52.565Z,2.90
2022-10-17T00:46:20.756Z,4.28
2022-10-17T00:48:52.510Z,4.65
2022-10-17T00:51:26.926Z,4.45
2022-10-17T00:53:53.634Z,5.30
2022-10-17T00:56:21.331Z,3.65
2022-10-17T00:58:48.864Z,4.47
2022-10-17T01:01:15.841Z,5.88
2022-10-17T01:03:43.340Z,4.50
2022-10-17T01:06:10.098Z,4.78
2022-10-17T01:08:36.715Z,4.50
2022-10-17T01:11:27.491Z,5.93
2022-10-17T01:14:29.492Z,5.57
2022-10-17T01:16:55.925Z,5.10
2022-10-17T01:20:08.149Z,3.60
2022-10-17T01:22:43.985Z,4.70
2022-10-17T01:25:52.712Z,6.40
2022-10-17T01:28:39.097Z,4.25
2022-10-17T01:31:16.572Z,5.85
2022-10-17T01:34:20.719Z,5.43
2022-10-17T01:37:02.298Z,4.60
2022-10-17T01:39:48.294Z,6.38
2022-10-17T01:42:20.058Z,3.20
2022-10-17T01:44:57.952Z,5.07
2022-10-17T01:47:31.623Z,8.73
2022-10-17T01:50:07.627Z,7.75
2022-10-17T01:52:40.141Z,5.97
2022-10-17T01:55:11.767Z,4.68
2022-10-17T01:57:41.607Z,6.85
2022-10-17T02:00:17.144Z,9.20
2022-10-17T02:02:46.308Z,8.27
2022-10-17T02:05:13.048Z,5.68
2022-10-17T02:07:41.940Z,5.50
2022-10-17T02:10:19.023Z,5.53
2022-10-17T02:12:53.260Z,5.53
2022-10-17T02:15:59.427Z,6.68
2022-10-17T02:18:40.072Z,5.75
2022-10-17T02:21:22.871Z,7.03
2022-10-17T02:24:13.130Z,6.32
2022-10-17T02:26:48.102Z,8.00
2022-10-17T02:29:47.929Z,9.93
2022-10-17T02:32:35.818Z,10.35
2022-10-17T02:35:05.546Z,10.10
2022-10-17T02:37:33.442Z,9.15
2022-10-17T02:40:02.259Z,12.25
2022-10-17T02:42:29.887Z,10.18
2022-10-17T02:45:01.075Z,11.10
2022-10-17T02:47:33.520Z,12.68
2022-10-17T02:50:00.169Z,11.32
2022-10-17T02:52:27.049Z,13.32
2022-10-17T02:55:16.747Z,13.25
2022-10-17T02:57:50.736Z,13.40
2022-10-17T03:00:19.175Z,8.02
2022-10-17T03:02:48.823Z,11.60
2022-10-17T03:05:24.529Z,11.90
2022-10-17T03:07:51.251Z,11.77
2022-10-17T03:10:17.894Z,11.45
2022-10-17T03:12:44.749Z,12.93
2022-10-17T03:15:11.994Z,9.32
2022-10-17T03:17:39.266Z,13.75
2022-10-17T03:20:07.019Z,10.57
2022-10-17T03:22:37.775Z,14.23
2022-10-17T03:25:08.580Z,14.00
2022-10-17T03:27:35.125Z,14.25
2022-10-17T03:30:01.675Z,14.75
2022-10-17T03:32:28.380Z,11.32
2022-10-17T03:34:54.919Z,14.20
2022-10-17T03:37:21.866Z,15.20
2022-10-17T03:39:48.353Z,14.93
2022-10-17T03:42:14.902Z,14.38
2022-10-17T03:44:41.498Z,14.93
2022-10-17T03:47:10.447Z,9.50
2022-10-17T03:49:39.949Z,11.13
2022-10-17T03:52:06.650Z,13.60
2022-10-17T03:54:33.391Z,10.18
2022-10-17T03:57:00.272Z,11.40
2022-10-17T03:59:26.893Z,11.15
2022-10-17T04:01:53.676Z,6.28
2022-10-17T04:04:20.321Z,5.78
2022-10-17T04:06:46.954Z,5.15
2022-10-17T04:09:13.590Z,7.97
2022-10-17T04:11:40.399Z,12.02
2022-10-17T04:14:07.089Z,13.38
2022-10-17T04:16:33.618Z,13.75
2022-10-17T04:19:00.592Z,11.88
2022-10-17T04:21:29.048Z,14.55
2022-10-17T04:23:58.131Z,12.63
2022-10-17T04:26:25.894Z,9.23
2022-10-17T04:28:52.851Z,11.50
2022-10-17T04:31:19.747Z,13.55
2022-10-17T04:33:50.653Z,12.20
2022-10-17T04:36:19.662Z,14.73
2022-10-17T04:38:46.945Z,14.15
2022-10-17T04:41:16.030Z,12.13
2022-10-17T04:43:45.588Z,13.55
2022-10-17T04:46:15.728Z,13.73
2022-10-17T04:48:42.531Z,14.88
2022-10-17T04:51:13.163Z,14.10
2022-10-17T04:53:43.908Z,15.32
2022-10-17T04:56:13.586Z,10.02
2022-10-17T04:58:43.421Z,15.55
2022-10-17T05:01:13.415Z,16.35
2022-10-17T05:03:40.710Z,16.17
2022-10-17T05:06:12.864Z,13.95
2022-10-17T05:08:39.801Z,14.40
2022-10-17T05:11:16.577Z,13.45
2022-10-17T05:13:43.140Z,12.00
2022-10-17T05:16:09.921Z,12.23
2022-10-17T05:18:36.733Z,14.25
2022-10-17T05:21:04.462Z,15.35
2022-10-17T05:23:31.148Z,13.30
2022-10-17T05:25:57.835Z,9.10
2022-10-17T05:28:24.373Z,15.32
2022-10-17T05:30:50.951Z,10.32
2022-10-17T05:33:17.465Z,13.80
2022-10-17T05:35:44.200Z,13.75
2022-10-17T05:38:10.996Z,14.60
2022-10-17T05:40:39.401Z,15.70
2022-10-17T05:43:06.057Z,11.80
2022-10-17T05:45:32.576Z,14.45
2022-10-17T05:47:59.137Z,16.33
2022-10-17T05:50:25.701Z,15.98
2022-10-17T05:52:55.815Z,14.90
2022-10-17T05:55:23.359Z,15.98
2022-10-17T05:57:52.635Z,12.20
2022-10-17T06:00:19.940Z,14.40
2022-10-17T06:02:49.344Z,13.98
2022-10-17T06:05:16.329Z,14.77
2022-10-17T06:07:43.284Z,9.68
2022-10-17T06:10:12.409Z,10.45
2022-10-17T06:12:39.626Z,12.65
2022-10-17T06:15:06.752Z,12.75
2022-10-17T06:17:33.245Z,11.38
2022-10-17T06:19:59.741Z,7.55
2022-10-17T06:22:26.467Z,10.93
2022-10-17T06:24:53.835Z,9.80
2022-10-17T06:27:20.789Z,13.52
2022-10-17T06:29:48.271Z,12.13
2022-10-17T06:32:15.271Z,11.88
2022-10-17T06:34:42.110Z,12.25
2022-10-17T06:37:08.712Z,13.68
2022-10-17T06:39:36.129Z,14.00
2022-10-17T06:42:03.723Z,9.02
2022-10-17T06:44:31.789Z,7.75
2022-10-17T06:46:59.748Z,11.85
2022-10-17T06:49:27.227Z,12.38
2022-10-17T06:51:54.358Z,11.10
2022-10-17T06:54:20.977Z,10.55
2022-10-17T06:56:47.543Z,13.98
2022-10-17T06:59:15.829Z,15.02
2022-10-17T07:01:46.181Z,12.32
2022-10-17T07:04:14.161Z,14.27
2022-10-17T07:06:40.823Z,11.50
2022-10-17T07:09:08.239Z,13.20
2022-10-17T07:11:41.797Z,11.77
2022-10-17T07:14:08.466Z,12.85
2022-10-17T07:16:35.032Z,14.18
2022-10-17T07:19:01.691Z,13.32
2022-10-17T07:21:29.152Z,11.82
2022-10-17T07:23:55.820Z,12.25
2022-10-17T07:26:22.786Z,10.80
2022-10-17T07:28:53.147Z,9.40
2022-10-17T07:31:22.465Z,12.60
2022-10-17T07:33:49.432Z,13.20
2022-10-17T07:36:16.728Z,13.77
2022-10-17T07:38:43.670Z,13.25
2022-10-17T07:41:19.298Z,12.93
2022-10-17T07:43:48.543Z,12.23
2022-10-17T07:46:15.486Z,12.13
2022-10-17T07:48:42.165Z,13.18
2022-10-17T07:51:09.927Z,12.90
2022-10-17T07:53:38.016Z,12.80
2022-10-17T07:56:09.228Z,12.52
2022-10-17T07:58:37.474Z,13.90
2022-10-17T08:01:08.400Z,13.73
2022-10-17T08:03:37.598Z,13.82
2022-10-17T08:06:04.585Z,14.25
2022-10-17T08:08:31.203Z,12.85
2022-10-17T08:11:03.427Z,14.32
2022-10-17T08:13:29.980Z,13.48
2022-10-17T08:16:05.681Z,12.50
2022-10-17T08:18:32.714Z,14.60
2022-10-17T08:21:03.061Z,16.73
2022-10-17T08:23:29.794Z,12.88
2022-10-17T08:26:00.401Z,17.40
2022-10-17T08:28:27.196Z,59.22
2022-10-17T08:30:53.870Z,36.20
2022-10-17T08:33:20.467Z,19.92
2022-10-17T08:35:47.082Z,20.58
2022-10-17T08:38:14.650Z,18.40
2022-10-17T08:41:14.824Z,20.58
2022-10-17T08:44:16.083Z,19.23
2022-10-17T08:46:45.536Z,19.48
2022-10-17T08:49:48.611Z,18.95
2022-10-17T08:52:38.720Z,21.10
2022-10-17T08:55:15.794Z,20.27
2022-10-17T08:57:43.268Z,22.00
2022-10-17T09:00:21.045Z,22.63
2022-10-17T09:02:57.931Z,23.92
2022-10-17T09:05:27.449Z,22.60
2022-10-17T09:08:07.443Z,24.23
2022-10-17T09:10:58.968Z,25.02
2022-10-17T09:13:30.482Z,25.85
2022-10-17T09:16:15.439Z,25.77
2022-10-17T09:18:51.403Z,25.27
2022-10-17T09:21:42.292Z,24.10
2022-10-17T09:24:32.809Z,24.35
2022-10-17T09:26:59.750Z,24.33
2022-10-17T09:29:32.359Z,24.20
2022-10-17T09:32:05.374Z,26.90
2022-10-17T09:34:33.352Z,25.70
2022-10-17T09:37:01.645Z,24.00
2022-10-17T09:39:33.077Z,24.20
2022-10-17T09:42:01.692Z,26.45
2022-10-17T09:44:34.082Z,25.77
2022-10-17T09:47:28.458Z,24.80
2022-10-17T09:49:55.102Z,23.30
2022-10-17T09:52:33.998Z,23.45
2022-10-17T09:55:34.329Z,23.80
2022-10-17T09:58:03.713Z,23.30
2022-10-17T10:00:33.666Z,22.55
2022-10-17T10:03:17.116Z,22.55
2022-10-17T10:05:59.648Z,21.55
2022-10-17T10:08:33.077Z,20.70
2022-10-17T10:11:03.518Z,19.33
2022-10-17T10:13:31.474Z,19.80
2022-10-17T10:16:15.020Z,21.58
2022-10-17T10:18:42.099Z,20.60
2022-10-17T10:21:13.403Z,21.90
2022-10-17T10:23:42.716Z,19.52
2022-10-17T10:26:22.365Z,18.33
2022-10-17T10:28:55.974Z,18.60
2022-10-17T10:31:32.085Z,18.13
2022-10-17T10:34:04.699Z,18.92
2022-10-17T10:36:50.132Z,17.15
2022-10-17T10:39:31.082Z,15.90
2022-10-17T10:42:34.528Z,16.50
2022-10-17T10:45:46.521Z,15.98
2022-10-17T10:48:21.598Z,14.63
2022-10-17T10:50:56.381Z,15.90
2022-10-17T10:53:37.362Z,15.15
2022-10-17T10:56:15.842Z,14.73
2022-10-17T10:59:19.192Z,14.75
2022-10-17T11:01:53.699Z,15.20
2022-10-17T11:04:36.514Z,15.18
2022-10-17T11:07:22.659Z,13.75
2022-10-17T11:10:19.684Z,13.80
2022-10-17T11:13:06.166Z,13.48
2022-10-17T11:16:21.536Z,14.90
2022-10-17T11:19:04.771Z,13.85
2022-10-17T11:21:43.814Z,12.23
2022-10-17T11:24:23.748Z,11.85
2022-10-17T11:26:59.914Z,12.45
2022-10-17T11:29:30.800Z,13.93
2022-10-17T11:32:02.053Z,11.15
2022-10-17T11:34:33.034Z,11.02
2022-10-17T11:37:08.067Z,12.23
2022-10-17T11:39:37.657Z,12.18
2022-10-17T11:42:09.908Z,11.98
2022-10-17T11:44:42.626Z,11.80
2022-10-17T11:47:28.160Z,11.45
2022-10-17T11:53:16.781Z,11.20
2022-10-17T11:55:44.483Z,10.07
2022-10-17T11:58:13.982Z,11.57
2022-10-17T12:01:01.864Z,10.27
2022-10-17T12:03:39.865Z,9.15
2022-10-17T12:06:13.407Z,9.00
2022-10-17T12:08:52.079Z,8.80
2022-10-17T12:11:54.225Z,9.13
2022-10-17T12:14:39.270Z,9.85
2022-10-17T12:17:29.231Z,10.02
2022-10-17T12:20:22.207Z,8.57
2022-10-17T12:22:50.390Z,9.65
2022-10-17T12:25:33.778Z,8.65
2022-10-17T12:28:06.573Z,9.50
2022-10-17T12:30:34.501Z,8.60
2022-10-17T12:33:11.372Z,8.32
2022-10-17T12:35:41.044Z,9.23
2022-10-17T12:38:16.665Z,9.30
2022-10-17T12:40:48.517Z,8.68
2022-10-17T12:43:15.463Z,8.50
2022-10-17T12:45:53.471Z,8.20
2022-10-17T12:48:38.689Z,9.05
2022-10-17T12:54:14.984Z,8.80
2022-10-17T12:56:44.391Z,9.77
2022-10-17T12:59:22.276Z,6.60
2022-10-17T13:01:53.582Z,8.13
2022-10-17T13:04:21.210Z,9.50
2022-10-17T13:06:54.066Z,9.27
2022-10-17T13:09:29.422Z,9.23
2022-10-17T13:11:59.110Z,7.63
2022-10-17T13:14:26.582Z,10.50
2022-10-17T13:16:53.091Z,8.43
2022-10-17T13:19:23.562Z,9.38
2022-10-17T13:22:06.012Z,8.88
2022-10-17T13:24:38.896Z,7.60
2022-10-17T13:27:21.199Z,10.65
2022-10-17T13:29:47.658Z,9.73
2022-10-17T13:32:14.151Z,9.07
2022-10-17T13:34:40.723Z,7.20
2022-10-17T13:37:11.007Z,9.40
2022-10-17T13:40:02.952Z,6.63
2022-10-17T13:42:39.154Z,9.48
2022-10-17T13:45:39.467Z,9.20
2022-10-17T13:48:17.163Z,9.13
2022-10-17T13:50:45.036Z,9.15
2022-10-17T13:53:34.972Z,7.53
2022-10-17T13:58:57.749Z,7.95
2022-10-17T14:01:27.081Z,8.57
2022-10-17T14:04:03.379Z,7.10
2022-10-17T14:06:34.423Z,8.32
2022-10-17T14:09:05.268Z,8.10
2022-10-17T14:11:38.229Z,7.25
2022-10-17T14:14:15.860Z,7.05
2022-10-17T14:16:43.932Z,6.13
2022-10-17T14:19:31.961Z,6.72
2022-10-17T14:22:37.363Z,7.63
2022-10-17T14:25:04.695Z,7.15
2022-10-17T14:28:14.018Z,6.13
2022-10-17T14:31:01.692Z,7.80
2022-10-17T14:33:32.145Z,7.50
2022-10-17T14:36:01.707Z,7.50
2022-10-17T14:38:29.733Z,7.55
2022-10-17T14:41:37.405Z,7.63
2022-10-17T14:43:58.818Z,4.97
2022-10-17T14:46:26.031Z,8.57
2022-10-17T14:48:55.287Z,7.65
2022-10-17T14:51:22.134Z,6.32
2022-10-17T14:54:22.554Z,7.63
2022-10-17T14:56:52.473Z,7.38
2022-10-17T14:59:52.015Z,5.80
2022-10-17T15:02:13.600Z,5.90
2022-10-17T15:04:40.384Z,6.50
2022-10-17T15:07:07.067Z,7.35
2022-10-17T15:09:33.907Z,7.57
2022-10-17T15:12:02.831Z,7.78
2022-10-17T15:14:29.371Z,5.15
2022-10-17T15:16:56.033Z,6.45
2022-10-17T15:19:22.500Z,7.03
2022-10-17T15:21:49.091Z,6.60
2022-10-17T15:24:15.936Z,4.72
2022-10-17T15:26:43.689Z,6.63
2022-10-17T15:29:16.201Z,4.90
2022-10-17T15:31:42.736Z,7.20
2022-10-17T15:34:19.200Z,7.40
2022-10-17T15:37:47.062Z,5.78
2022-10-17T15:40:16.309Z,6.45
2022-10-17T15:42:43.011Z,5.82
2022-10-17T15:45:15.854Z,5.72
2022-10-17T15:47:44.024Z,6.35
2022-10-17T15:50:18.411Z,6.75
2022-10-17T15:52:47.160Z,6.65
2022-10-17T15:55:13.698Z,5.45
2022-10-17T15:57:42.520Z,5.47
2022-10-17T16:00:20.546Z,6.82
2022-10-17T16:02:51.092Z,6.90
2022-10-17T16:05:25.614Z,5.75
2022-10-17T16:07:53.522Z,7.18
2022-10-17T16:10:21.801Z,4.45
2022-10-17T16:12:50.132Z,7.05
2022-10-17T16:15:22.946Z,6.75
2022-10-17T16:17:54.340Z,3.72
2022-10-17T16:20:21.854Z,6.20
2022-10-17T16:22:53.023Z,7.95
2022-10-17T16:25:26.327Z,4.60
2022-10-17T16:27:56.347Z,4.57
2022-10-17T16:30:25.016Z,8.30
2022-10-17T16:32:52.439Z,7.60
2022-10-17T16:35:31.850Z,7.70
2022-10-17T16:38:01.516Z,7.63
2022-10-17T16:40:28.157Z,6.60
2022-10-17T16:42:54.822Z,8.45
2022-10-17T16:45:24.807Z,8.25
2022-10-17T16:48:03.716Z,7.47
2022-10-17T16:50:41.993Z,7.55
2022-10-17T16:53:08.692Z,7.07
2022-10-17T16:55:35.424Z,6.78
2022-10-17T16:58:01.914Z,7.65
2022-10-17T17:00:28.629Z,8.02
2022-10-17T17:02:57.714Z,3.40
2022-10-17T17:05:24.394Z,8.63
2022-10-17T17:07:51.350Z,9.20
2022-10-17T17:10:18.040Z,7.78
2022-10-17T17:12:44.745Z,9.40
2022-10-17T17:15:11.361Z,10.55
2022-10-17T17:17:56.306Z,7.70
2022-10-17T17:20:24.204Z,9.85
2022-10-17T17:22:53.979Z,10.10
2022-10-17T17:25:23.704Z,10.70
2022-10-17T17:27:50.297Z,8.38
2022-10-17T17:30:18.514Z,9.80
2022-10-17T17:32:45.031Z,5.70
2022-10-17T17:35:11.620Z,6.45
2022-10-17T17:37:38.412Z,13.45
2022-10-17T17:40:06.272Z,4.45
2022-10-17T17:42:33.002Z,8.15
2022-10-17T17:45:07.261Z,11.23
2022-10-17T17:47:34.076Z,9.15
2022-10-17T17:50:00.815Z,8.57
2022-10-17T17:52:28.086Z,4.00
2022-10-17T17:54:55.153Z,6.57
2022-10-17T17:57:22.187Z,7.90
2022-10-17T17:59:49.896Z,7.43
2022-10-17T18:02:16.960Z,7.55
2022-10-17T18:04:44.817Z,4.88
2022-10-17T18:07:14.463Z,4.80
2022-10-17T18:09:46.766Z,9.85
2022-10-17T18:12:32.010Z,19.83
2022-10-17T18:14:58.999Z,20.58
2022-10-17T18:17:39.704Z,23.80
2022-10-17T18:20:08.300Z,25.85
2022-10-17T18:22:38.431Z,11.18
2022-10-17T18:25:10.392Z,20.63
2022-10-17T18:27:37.185Z,23.30
2022-10-17T18:30:23.799Z,17.48
2022-10-17T18:32:52.669Z,22.52
2022-10-17T18:35:21.001Z,15.02
2022-10-17T18:37:56.657Z,12.68
2022-10-17T18:40:23.477Z,19.35
2022-10-17T18:42:53.391Z,17.77
2022-10-17T18:45:21.033Z,20.33
2022-10-17T18:47:49.682Z,17.23
2022-10-17T18:50:18.670Z,22.52
2022-10-17T18:52:46.807Z,23.67
2022-10-17T18:55:29.742Z,9.75
2022-10-17T18:58:14.534Z,21.38
2022-10-17T19:00:41.185Z,21.73
2022-10-17T19:03:16.183Z,14.57
2022-10-17T19:05:47.327Z,7.55
2022-10-17T19:08:15.387Z,21.35
2022-10-17T19:10:42.762Z,20.92
2022-10-17T19:13:11.725Z,15.82
2022-10-17T19:15:38.903Z,22.88
2022-10-17T19:18:05.628Z,23.15
2022-10-17T19:20:34.644Z,26.25
2022-10-17T19:23:01.285Z,26.98
2022-10-17T19:25:34.555Z,28.73
2022-10-17T19:28:13.551Z,24.00
2022-10-17T19:30:49.877Z,31.70
2022-10-17T19:33:16.675Z,27.38
2022-10-17T19:35:56.108Z,26.38
2022-10-17T19:38:22.912Z,25.17
2022-10-17T19:40:53.443Z,26.92
2022-10-17T19:43:38.024Z,27.45
2022-10-17T19:46:11.021Z,21.17
2022-10-17T19:48:40.600Z,25.10
2022-10-17T19:51:11.906Z,26.50
2022-10-17T20:01:03.655Z,26.67
2022-10-17T20:03:32.934Z,26.50
2022-10-17T20:05:59.433Z,29.20
2022-10-17T20:10:52.703Z,22.27
2022-10-17T20:13:19.274Z,29.52
2022-10-17T20:15:54.863Z,20.50
2022-10-17T20:18:21.790Z,28.52
2022-10-17T20:20:48.441Z,30.05
2022-10-17T20:23:15.274Z,30.42
2022-10-17T20:25:42.236Z,31.15
2022-10-17T20:28:10.051Z,32.78
2022-10-17T20:30:36.585Z,34.03
2022-10-17T20:33:03.361Z,34.90
2022-10-17T20:35:30.133Z,34.88
2022-10-17T20:37:56.708Z,33.28
2022-10-17T20:40:34.581Z,34.25
2022-10-17T20:43:02.642Z,32.75
2022-10-17T20:45:43.728Z,36.17
2022-10-17T20:48:15.907Z,34.67
2022-10-17T20:50:43.792Z,31.55
2022-10-17T20:53:35.405Z,32.10
2022-10-17T20:56:15.954Z,31.33
2022-10-17T20:58:42.699Z,28.10
2022-10-17T21:01:10.553Z,29.88
2022-10-17T21:03:41.010Z,31.00
2022-10-17T21:06:10.877Z,29.70
2022-10-17T21:08:37.702Z,31.58
2022-10-17T21:11:16.334Z,29.92
2022-10-17T21:13:43.577Z,30.00
2022-10-17T21:16:17.080Z,26.48
2022-10-17T21:18:44.097Z,31.33
2022-10-17T21:21:15.275Z,30.00
2022-10-17T21:23:44.744Z,30.33
2022-10-17T21:26:13.173Z,30.63
2022-10-17T21:28:41.577Z,32.80
2022-10-17T21:31:23.240Z,30.98
2022-10-17T21:33:52.754Z,33.88
2022-10-17T21:36:19.900Z,33.75
2022-10-17T21:38:48.986Z,27.45
2022-10-17T21:41:17.668Z,33.05
2022-10-17T21:43:44.201Z,29.38
2022-10-17T21:46:13.377Z,30.30
2022-10-17T21:51:41.612Z,28.15
2022-10-17T21:54:26.153Z,16.92
2022-10-17T21:56:58.967Z,29.38
2022-10-17T21:59:26.022Z,32.35
2022-10-17T22:01:52.561Z,42.08
2022-10-17T22:04:19.836Z,24.42
2022-10-17T22:06:48.440Z,24.42
2022-10-17T22:09:21.421Z,27.00
2022-10-17T22:11:51.183Z,11.10
2022-10-17T22:14:20.128Z,6.07
2022-10-17T22:16:48.117Z,21.00
2022-10-17T22:19:17.952Z,26.65
2022-10-17T22:21:45.161Z,11.93
2022-10-17T22:24:14.850Z,8.68
2022-10-17T22:26:42.083Z,20.15
2022-10-17T22:29:09.275Z,14.95
2022-10-17T22:31:36.935Z,19.88
2022-10-17T22:34:05.461Z,13.35
2022-10-17T22:36:32.787Z,13.68
2022-10-17T22:38:59.327Z,15.05
2022-10-17T22:41:25.829Z,10.90
2022-10-17T22:43:52.307Z,20.27
2022-10-17T22:46:27.526Z,16.23
2022-10-17T22:48:54.091Z,22.45
2022-10-17T22:51:20.927Z,8.15
2022-10-17T22:53:47.651Z,6.18
2022-10-17T22:56:17.863Z,20.15
2022-10-17T22:58:45.108Z,21.38
2022-10-17T23:01:17.908Z,11.45
2022-10-17T23:03:45.011Z,15.02
2022-10-17T23:06:11.926Z,21.40
2022-10-17T23:08:39.043Z,12.38
2022-10-17T23:11:06.731Z,9.52
2022-10-17T23:13:33.410Z,11.10
2022-10-17T23:16:00.109Z,20.40
2022-10-17T23:20:55.711Z,14.38
2022-10-17T23:23:22.672Z,11.70
2022-10-17T23:25:49.781Z,20.52
2022-10-17T23:28:16.649Z,22.17
2022-10-17T23:30:43.305Z,10.27
2022-10-17T23:33:12.391Z,21.35
2022-10-17T23:35:39.381Z,21.83
2022-10-17T23:38:05.864Z,27.67
2022-10-17T23:40:32.401Z,12.68
2022-10-17T23:42:59.030Z,11.32
2022-10-17T23:45:25.665Z,29.73
2022-10-17T23:47:52.165Z,16.55
2022-10-17T23:50:18.826Z,28.02
2022-10-17T23:52:45.481Z,28.55
2022-10-17T23:55:12.142Z,40.60
2022-10-17T23:57:38.632Z,13.50
